createdAt,value
2022-10-17T00:02:17.796Z,80.72
2022-10-17T00:04:47.998Z,80.85
2022-10-17T00:07:18.181Z,80.81
2022-10-17T00:09:48.370Z,80.96
2022-10-17T00:12:18.599Z,81.06
2022-10-17T00:14:48.850Z,81.32
2022-10-17T00:17:19.081Z,81.26
2022-10-17T00:19:49.452Z,81.20
2022-10-17T00:22:19.715Z,81.15
2022-10-17T00:24:49.964Z,81.08
2022-10-17T00:27:20.514Z,80.93
2022-10-17T00:29:52.871Z,81.16
2022-10-17T00:32:23.482Z,81.19
2022-10-17T00:34:53.696Z,81.26
2022-10-17T00:37:23.904Z,81.31
2022-10-17T00:39:54.378Z,81.36
2022-10-17T00:42:25.198Z,81.30
2022-10-17T00:45:07.521Z,81.39
2022-10-17T00:47:38.337Z,81.50
2022-10-17T00:50:10.421Z,81.58
2022-10-17T00:52:41.360Z,81.59
2022-10-17T00:55:16.014Z,81.73
2022-10-17T00:57:47.632Z,81.77
2022-10-17T01:00:19.481Z,81.57
2022-10-17T01:02:49.803Z,81.50
2022-10-17T01:05:21.589Z,81.62
2022-10-17T01:07:54.357Z,81.67
2022-10-17T01:10:27.333Z,81.81
2022-10-17T01:13:10.784Z,81.90
2022-10-17T01:15:51.514Z,82.01
2022-10-17T01:18:32.427Z,82.05
2022-10-17T01:21:35.300Z,82.21
2022-10-17T01:24:44.048Z,82.26
2022-10-17T01:27:37.192Z,82.41
2022-10-17T01:30:30.551Z,82.59
2022-10-17T01:33:06.436Z,82.74
2022-10-17T01:35:43.265Z,82.64
2022-10-17T01:38:19.488Z,82.50
2022-10-17T01:40:54.752Z,82.55
2022-10-17T01:43:28.662Z,82.60
2022-10-17T01:46:04.071Z,82.65
2022-10-17T01:48:37.205Z,82.65
2022-10-17T01:51:12.295Z,82.40
2022-10-17T01:53:48.204Z,82.33
2022-10-17T01:56:21.536Z,82.38
2022-10-17T01:58:56.445Z,82.42
2022-10-17T02:01:27.954Z,82.46
2022-10-17T02:03:59.200Z,82.54
2022-10-17T02:06:29.461Z,82.59
2022-10-17T02:08:59.682Z,82.65
2022-10-17T02:11:30.477Z,82.84
2022-10-17T02:14:23.592Z,83.10
2022-10-17T02:17:02.077Z,83.28
2022-10-17T02:19:41.989Z,83.49
2022-10-17T02:22:24.779Z,83.63
2022-10-17T02:25:03.883Z,83.64
2022-10-17T02:27:44.855Z,83.89
2022-10-17T02:30:22.738Z,83.92
2022-10-17T02:32:57.915Z,84.08
2022-10-17T02:35:31.549Z,84.16
2022-10-17T02:38:04.546Z,84.28
2022-10-17T02:40:36.764Z,84.32
2022-10-17T02:43:07.144Z,84.39
2022-10-17T02:45:39.853Z,84.49
2022-10-17T02:48:17.347Z,84.36
2022-10-17T02:50:58.167Z,84.14
2022-10-17T02:53:38.702Z,83.98
2022-10-17T02:56:15.672Z,83.82
2022-10-17T02:58:51.322Z,83.80
2022-10-17T03:01:22.085Z,83.83
2022-10-17T03:03:53.112Z,83.79
2022-10-17T03:06:23.412Z,83.77
2022-10-17T03:08:53.667Z,83.88
2022-10-17T03:11:23.859Z,83.83
2022-10-17T03:13:54.101Z,83.94
2022-10-17T03:16:24.326Z,83.88
2022-10-17T03:18:54.558Z,83.79
2022-10-17T03:21:24.841Z,83.67
2022-10-17T03:23:55.101Z,83.62
2022-10-17T03:26:25.379Z,83.73
2022-10-17T03:28:55.644Z,83.88
2022-10-17T03:31:26.161Z,84.06
2022-10-17T03:33:56.710Z,84.13
2022-10-17T03:36:26.980Z,83.93
2022-10-17T03:38:57.737Z,83.86
2022-10-17T03:41:28.064Z,83.81
2022-10-17T03:43:58.276Z,83.66
2022-10-17T03:46:28.641Z,83.59
2022-10-17T03:48:58.895Z,83.50
2022-10-17T03:51:29.325Z,83.45
2022-10-17T03:53:59.547Z,83.58
2022-10-17T03:56:29.838Z,83.80
2022-10-17T03:59:00.090Z,84.01
2022-10-17T04:01:30.511Z,84.24
2022-10-17T04:04:00.761Z,84.28
2022-10-17T04:06:31.085Z,84.49
2022-10-17T04:09:01.604Z,84.69
2022-10-17T04:11:31.995Z,84.73
2022-10-17T04:14:02.295Z,84.80
2022-10-17T04:16:32.763Z,84.85
2022-10-17T04:19:03.942Z,84.92
2022-10-17T04:21:34.182Z,84.99
2022-10-17T04:24:04.546Z,85.15
2022-10-17T04:26:34.774Z,85.24
2022-10-17T04:29:05.088Z,85.19
2022-10-17T04:31:35.882Z,85.19
2022-10-17T04:34:06.121Z,85.25
2022-10-17T04:36:36.521Z,85.35
2022-10-17T04:39:06.849Z,85.42
2022-10-17T04:41:37.268Z,85.46
2022-10-17T04:44:07.727Z,85.60
2022-10-17T04:46:38.013Z,85.67
2022-10-17T04:49:09.396Z,85.72
2022-10-17T04:51:40.496Z,85.70
2022-10-17T04:54:10.907Z,85.82
2022-10-17T04:56:41.183Z,85.82
2022-10-17T04:59:11.393Z,85.83
2022-10-17T05:01:41.644Z,85.87
2022-10-17T05:04:11.866Z,85.89
2022-10-17T05:06:42.146Z,85.93
2022-10-17T05:09:12.456Z,86.09
2022-10-17T05:11:45.344Z,86.08
2022-10-17T05:14:16.325Z,86.21
2022-10-17T05:16:46.519Z,86.22
2022-10-17T05:19:17.233Z,86.27
2022-10-17T05:21:47.457Z,86.26
2022-10-17T05:24:19.146Z,86.36
2022-10-17T05:26:50.985Z,86.37
2022-10-17T05:29:21.305Z,86.30
2022-10-17T05:31:51.574Z,86.33
2022-10-17T05:34:21.937Z,86.39
2022-10-17T05:36:52.171Z,86.30
2022-10-17T05:39:23.385Z,86.31
2022-10-17T05:41:53.716Z,86.26
2022-10-17T05:44:23.960Z,86.32
2022-10-17T05:46:54.402Z,86.29
2022-10-17T05:49:33.341Z,86.27
2022-10-17T05:52:14.112Z,86.32
2022-10-17T05:54:44.318Z,86.47
2022-10-17T05:57:14.652Z,86.29
2022-10-17T05:59:44.846Z,86.41
2022-10-17T06:02:15.599Z,86.43
2022-10-17T06:04:48.488Z,86.48
2022-10-17T06:07:19.198Z,86.51
2022-10-17T06:09:49.455Z,86.43
2022-10-17T06:12:19.705Z,86.42
2022-10-17T06:14:49.920Z,86.35
2022-10-17T06:17:20.202Z,86.42
2022-10-17T06:19:50.390Z,86.39
2022-10-17T06:22:20.656Z,86.44
2022-10-17T06:24:52.507Z,86.45
2022-10-17T06:27:23.375Z,86.39
2022-10-17T06:29:53.585Z,86.48
2022-10-17T06:32:23.825Z,86.49
2022-10-17T06:34:54.049Z,86.48
2022-10-17T06:37:24.250Z,86.38
2022-10-17T06:39:54.460Z,86.27
2022-10-17T06:42:24.728Z,86.39
2022-10-17T06:44:54.901Z,86.43
2022-10-17T06:47:25.097Z,86.36
2022-10-17T06:49:55.303Z,86.50
2022-10-17T06:52:25.643Z,86.39
2022-10-17T06:54:55.923Z,86.33
2022-10-17T06:57:26.502Z,86.41
2022-10-17T06:59:57.625Z,86.39
2022-10-17T07:02:28.187Z,86.33
2022-10-17T07:04:58.659Z,86.29
2022-10-17T07:07:31.452Z,86.25
2022-10-17T07:10:03.846Z,86.21
2022-10-17T07:12:34.146Z,86.17
2022-10-17T07:15:05.356Z,86.20
2022-10-17T07:17:35.714Z,85.97
2022-10-17T07:20:06.546Z,85.57
2022-10-17T07:22:36.865Z,85.08
2022-10-17T07:25:08.730Z,84.48
2022-10-17T07:27:39.108Z,83.86
2022-10-17T07:30:11.894Z,83.57
2022-10-17T07:32:42.951Z,83.47
2022-10-17T07:35:14.412Z,83.19
2022-10-17T07:37:44.667Z,83.07
2022-10-17T07:40:15.052Z,82.79
2022-10-17T07:42:45.280Z,82.61
2022-10-17T07:45:15.763Z,82.66
2022-10-17T07:47:46.003Z,82.44
2022-10-17T07:50:16.305Z,82.27
2022-10-17T07:52:46.738Z,82.18
2022-10-17T07:55:17.328Z,82.11
2022-10-17T07:57:47.581Z,81.95
2022-10-17T08:00:25.532Z,81.81
2022-10-17T08:02:55.763Z,81.63
2022-10-17T08:05:26.096Z,81.51
2022-10-17T08:07:57.072Z,81.21
2022-10-17T08:10:29.617Z,81.10
2022-10-17T08:13:00.338Z,81.08
2022-10-17T08:15:32.149Z,80.91
2022-10-17T08:18:02.514Z,80.75
2022-10-17T08:20:32.763Z,80.42
2022-10-17T08:23:03.037Z,80.24
2022-10-17T08:25:33.980Z,79.89
2022-10-17T08:28:04.313Z,79.73
2022-10-17T08:30:34.735Z,79.25
2022-10-17T08:33:05.032Z,79.05
2022-10-17T08:35:35.332Z,78.74
2022-10-17T08:38:05.667Z,78.63
2022-10-17T08:40:36.448Z,78.38
2022-10-17T08:43:26.351Z,78.21
2022-10-17T08:46:00.444Z,78.05
2022-10-17T08:48:33.827Z,77.80
2022-10-17T08:51:08.189Z,77.43
2022-10-17T08:53:43.633Z,77.20
2022-10-17T08:56:24.922Z,76.97
2022-10-17T08:59:14.348Z,76.68
2022-10-17T09:01:51.017Z,76.40
2022-10-17T09:04:43.115Z,76.09
2022-10-17T09:07:19.742Z,75.75
2022-10-17T09:10:00.905Z,75.14
2022-10-17T09:12:39.846Z,74.48
2022-10-17T09:15:30.934Z,74.25
2022-10-17T09:18:04.611Z,73.76
2022-10-17T09:20:39.208Z,73.36
2022-10-17T09:23:16.793Z,73.18
2022-10-17T09:25:49.122Z,73.09
2022-10-17T09:28:23.029Z,72.83
2022-10-17T09:30:58.088Z,72.44
2022-10-17T09:33:53.373Z,71.96
2022-10-17T09:36:23.874Z,71.28
2022-10-17T09:38:57.112Z,70.76
2022-10-17T09:41:44.929Z,70.77
2022-10-17T09:44:24.166Z,70.66
2022-10-17T09:47:03.841Z,70.57
2022-10-17T09:49:36.939Z,70.41
2022-10-17T09:52:12.481Z,70.24
2022-10-17T09:54:48.286Z,69.91
2022-10-17T09:57:20.780Z,69.51
2022-10-17T10:00:00.144Z,69.59
2022-10-17T10:02:33.513Z,69.31
2022-10-17T10:05:07.262Z,68.91
2022-10-17T10:07:40.300Z,68.88
2022-10-17T10:10:27.858Z,68.54
2022-10-17T10:13:07.991Z,67.59
2022-10-17T10:15:41.185Z,67.22
2022-10-17T10:18:35.717Z,66.65
2022-10-17T10:21:13.160Z,65.48
2022-10-17T10:23:47.039Z,64.82
2022-10-17T10:26:28.935Z,64.15
2022-10-17T10:29:02.276Z,63.75
2022-10-17T10:31:36.270Z,63.38
2022-10-17T10:34:17.796Z,62.99
2022-10-17T10:36:57.459Z,62.30
2022-10-17T10:39:36.298Z,62.05
2022-10-17T10:42:10.227Z,61.86
2022-10-17T10:44:42.535Z,61.93
2022-10-17T10:47:26.096Z,61.49
2022-10-17T10:50:16.966Z,60.95
2022-10-17T10:52:51.457Z,60.60
2022-10-17T10:55:28.618Z,60.06
2022-10-17T10:58:04.124Z,59.50
2022-10-17T11:00:39.101Z,59.00
2022-10-17T11:03:17.204Z,58.60
2022-10-17T11:05:53.962Z,58.27
2022-10-17T11:08:29.749Z,58.28
2022-10-17T11:11:07.707Z,58.07
2022-10-17T11:13:42.288Z,57.85
2022-10-17T11:16:24.337Z,57.35
2022-10-17T11:19:00.913Z,57.04
2022-10-17T11:21:35.421Z,56.57
2022-10-17T11:24:15.317Z,56.41
2022-10-17T11:26:50.417Z,56.14
2022-10-17T11:29:20.992Z,55.96
2022-10-17T11:31:54.733Z,55.28
2022-10-17T11:34:27.566Z,54.83
2022-10-17T11:37:04.332Z,54.99
2022-10-17T11:42:25.766Z,54.91
2022-10-17T11:45:01.713Z,54.60
2022-10-17T11:47:40.380Z,54.43
2022-10-17T11:53:17.354Z,53.59
2022-10-17T11:55:48.783Z,53.34
2022-10-17T11:58:34.147Z,53.11
2022-10-17T12:01:15.149Z,52.70
2022-10-17T12:04:02.890Z,52.39
2022-10-17T12:06:46.376Z,51.87
2022-10-17T12:09:26.024Z,51.23
2022-10-17T12:11:58.549Z,50.10
2022-10-17T12:14:41.454Z,49.75
2022-10-17T12:17:39.130Z,49.57
2022-10-17T12:20:29.038Z,49.24
2022-10-17T12:23:02.892Z,48.49
2022-10-17T12:25:35.283Z,47.84
2022-10-17T12:28:18.243Z,47.81
2022-10-17T12:30:58.677Z,47.92
2022-10-17T12:33:34.114Z,47.71
2022-10-17T12:36:50.343Z,47.41
2022-10-17T12:39:52.630Z,47.23
2022-10-17T12:42:34.711Z,47.47
2022-10-17T12:45:26.164Z,47.12
2022-10-17T12:47:56.388Z,46.13
2022-10-17T12:54:00.842Z,46.42
2022-10-17T12:56:39.494Z,45.96
2022-10-17T12:59:16.400Z,45.95
2022-10-17T13:01:47.897Z,45.89
2022-10-17T13:04:18.918Z,45.25
2022-10-17T13:06:53.982Z,45.29
2022-10-17T13:09:30.553Z,45.02
2022-10-17T13:12:04.009Z,45.24
2022-10-17T13:14:35.850Z,44.90
2022-10-17T13:17:21.917Z,44.02
2022-10-17T13:19:52.514Z,43.87
2022-10-17T13:22:25.188Z,43.68
2022-10-17T13:25:08.216Z,43.59
2022-10-17T13:27:41.579Z,43.50
2022-10-17T13:30:32.517Z,43.79
2022-10-17T13:33:03.781Z,43.86
2022-10-17T13:38:34.784Z,44.55
2022-10-17T13:41:34.672Z,44.57
2022-10-17T13:44:12.536Z,43.94
2022-10-17T13:46:43.963Z,43.78
2022-10-17T13:49:24.454Z,43.40
2022-10-17T13:52:01.379Z,43.26
2022-10-17T13:54:40.077Z,43.08
2022-10-17T13:57:21.894Z,42.98
2022-10-17T13:59:54.514Z,43.23
2022-10-17T14:02:28.422Z,43.29
2022-10-17T14:05:17.355Z,43.19
2022-10-17T14:10:45.363Z,43.12
2022-10-17T14:13:24.407Z,43.35
2022-10-17T14:15:55.863Z,43.32
2022-10-17T14:18:30.956Z,43.37
2022-10-17T14:24:16.273Z,43.75
2022-10-17T14:26:54.418Z,43.66
2022-10-17T14:29:27.296Z,43.43
2022-10-17T14:32:03.588Z,43.67
2022-10-17T14:34:37.183Z,43.63
2022-10-17T14:37:13.692Z,43.68
2022-10-17T14:39:42.464Z,43.83
2022-10-17T14:42:21.799Z,44.07
2022-10-17T14:44:54.479Z,44.40
2022-10-17T14:47:43.327Z,44.63
2022-10-17T14:50:25.790Z,44.74
2022-10-17T14:53:04.796Z,44.86
2022-10-17T14:55:37.584Z,45.00
2022-10-17T14:58:21.701Z,45.21
2022-10-17T15:00:51.993Z,45.30
2022-10-17T15:03:22.702Z,45.40
2022-10-17T15:05:55.411Z,45.68
2022-10-17T15:08:26.158Z,45.91
2022-10-17T15:10:56.435Z,46.24
2022-10-17T15:13:28.835Z,46.47
2022-10-17T15:16:00.556Z,46.43
2022-10-17T15:18:30.816Z,46.78
2022-10-17T15:21:05.451Z,46.85
2022-10-17T15:23:43.275Z,46.95
2022-10-17T15:26:21.685Z,46.89
2022-10-17T15:28:54.156Z,47.01
2022-10-17T15:31:27.653Z,47.10
2022-10-17T15:33:58.382Z,47.32
2022-10-17T15:36:30.576Z,47.44
2022-10-17T15:39:02.513Z,47.54
2022-10-17T15:41:34.332Z,47.81
2022-10-17T15:44:04.650Z,48.04
2022-10-17T15:46:36.481Z,48.02
2022-10-17T15:49:08.660Z,48.17
2022-10-17T15:51:38.936Z,48.39
2022-10-17T15:54:09.530Z,48.59
2022-10-17T15:56:42.315Z,48.78
2022-10-17T15:59:17.933Z,49.03
2022-10-17T16:01:48.677Z,49.28
2022-10-17T16:04:19.020Z,49.31
2022-10-17T16:06:49.306Z,49.60
2022-10-17T16:09:19.583Z,50.03
2022-10-17T16:11:49.793Z,50.17
2022-10-17T16:14:20.111Z,50.51
2022-10-17T16:16:50.436Z,50.56
2022-10-17T16:19:20.912Z,50.75
2022-10-17T16:21:51.357Z,50.80
2022-10-17T16:24:21.600Z,50.93
2022-10-17T16:26:52.248Z,51.12
2022-10-17T16:29:22.508Z,51.27
2022-10-17T16:31:52.736Z,51.35
2022-10-17T16:34:22.935Z,51.43
2022-10-17T16:36:53.223Z,51.71
2022-10-17T16:39:23.515Z,52.04
2022-10-17T16:41:56.265Z,51.94
2022-10-17T16:44:31.259Z,52.16
2022-10-17T16:47:01.479Z,52.38
2022-10-17T16:49:31.688Z,52.45
2022-10-17T16:52:01.898Z,52.54
2022-10-17T16:54:32.163Z,52.67
2022-10-17T16:57:02.721Z,52.88
2022-10-17T16:59:33.074Z,52.91
2022-10-17T17:02:03.312Z,53.17
2022-10-17T17:04:37.450Z,53.24
2022-10-17T17:07:07.959Z,53.38
2022-10-17T17:09:43.350Z,53.60
2022-10-17T17:12:13.731Z,53.66
2022-10-17T17:14:43.952Z,53.69
2022-10-17T17:17:24.393Z,53.89
2022-10-17T17:20:00.991Z,54.23
2022-10-17T17:22:31.233Z,54.31
2022-10-17T17:25:01.463Z,54.43
2022-10-17T17:27:32.281Z,54.57
2022-10-17T17:30:02.721Z,54.71
2022-10-17T17:32:34.575Z,54.94
2022-10-17T17:35:05.191Z,55.06
2022-10-17T17:37:35.926Z,55.16
2022-10-17T17:40:09.510Z,55.22
2022-10-17T17:42:39.730Z,55.28
2022-10-17T17:45:12.041Z,55.44
2022-10-17T17:47:42.269Z,55.37
2022-10-17T17:50:13.263Z,55.46
2022-10-17T17:52:45.568Z,55.43
2022-10-17T17:55:15.867Z,55.46
2022-10-17T17:57:46.130Z,55.52
2022-10-17T18:00:17.554Z,55.61
2022-10-17T18:02:47.826Z,55.61
2022-10-17T18:05:19.491Z,55.65
2022-10-17T18:07:49.849Z,55.61
2022-10-17T18:10:28.952Z,55.70
2022-10-17T18:12:59.208Z,55.76
2022-10-17T18:15:29.543Z,55.80
2022-10-17T18:17:59.831Z,55.84
2022-10-17T18:20:30.147Z,55.86
2022-10-17T18:23:03.451Z,55.87
2022-10-17T18:25:34.561Z,55.92
2022-10-17T18:28:05.371Z,55.91
2022-10-17T18:30:39.253Z,56.03
2022-10-17T18:33:09.497Z,56.07
2022-10-17T18:35:39.690Z,56.03
2022-10-17T18:38:09.957Z,56.13
2022-10-17T18:40:40.504Z,56.13
2022-10-17T18:43:11.161Z,56.15
2022-10-17T18:45:41.411Z,56.22
2022-10-17T18:48:11.707Z,56.19
2022-10-17T18:50:41.920Z,56.18
2022-10-17T18:53:12.110Z,56.20
2022-10-17T18:55:42.690Z,56.15
2022-10-17T18:58:12.975Z,56.10
2022-10-17T19:00:43.224Z,56.10
2022-10-17T19:03:13.553Z,56.03
2022-10-17T19:05:45.204Z,56.05
2022-10-17T19:08:16.201Z,56.15
2022-10-17T19:10:46.693Z,56.14
2022-10-17T19:13:21.596Z,56.20
2022-10-17T19:15:52.252Z,56.20
2022-10-17T19:18:24.635Z,56.29
2022-10-17T19:20:54.949Z,56.33
2022-10-17T19:23:25.430Z,56.43
2022-10-17T19:26:00.387Z,56.47
2022-10-17T19:28:30.909Z,56.60
2022-10-17T19:31:01.286Z,56.63
2022-10-17T19:33:32.152Z,56.82
2022-10-17T19:36:05.053Z,56.91
2022-10-17T19:38:36.029Z,57.03
2022-10-17T19:41:13.119Z,57.13
2022-10-17T19:43:44.814Z,57.32
2022-10-17T19:46:18.343Z,57.48
2022-10-17T19:48:49.561Z,57.78
2022-10-17T19:51:21.683Z,58.14
2022-10-17T19:53:52.150Z,58.56
2022-10-17T19:56:24.630Z,58.70
2022-10-17T19:59:00.233Z,58.92
2022-10-17T20:01:33.678Z,59.06
2022-10-17T20:04:04.700Z,59.20
2022-10-17T20:06:35.661Z,59.30
2022-10-17T20:09:11.025Z,59.63
2022-10-17T20:11:44.253Z,59.78
2022-10-17T20:14:15.468Z,60.00
2022-10-17T20:16:50.126Z,60.34
2022-10-17T20:19:20.879Z,60.53
2022-10-17T20:21:51.343Z,60.81
2022-10-17T20:24:21.599Z,61.05
2022-10-17T20:26:51.865Z,61.12
2022-10-17T20:29:24.060Z,61.43
2022-10-17T20:31:54.318Z,61.42
2022-10-17T20:34:24.877Z,61.56
2022-10-17T20:36:55.186Z,61.78
2022-10-17T20:39:25.432Z,61.78
2022-10-17T20:41:55.997Z,61.93
2022-10-17T20:44:26.250Z,62.42
2022-10-17T20:47:02.836Z,62.62
2022-10-17T20:49:34.121Z,62.96
2022-10-17T20:52:04.404Z,63.06
2022-10-17T20:54:34.686Z,63.13
2022-10-17T20:57:05.796Z,63.27
2022-10-17T20:59:36.969Z,63.37
2022-10-17T21:02:07.761Z,63.51
2022-10-17T21:04:46.219Z,63.44
2022-10-17T21:07:17.348Z,63.60
2022-10-17T21:09:47.538Z,63.66
2022-10-17T21:12:26.042Z,63.74
2022-10-17T21:15:01.815Z,63.53
2022-10-17T21:17:32.044Z,63.48
2022-10-17T21:20:02.366Z,63.50
2022-10-17T21:22:33.691Z,63.48
2022-10-17T21:25:04.070Z,63.74
2022-10-17T21:27:34.302Z,64.10
2022-10-17T21:30:05.090Z,64.43
2022-10-17T21:32:51.056Z,64.93
2022-10-17T21:35:22.182Z,64.92
2022-10-17T21:37:53.388Z,64.97
2022-10-17T21:40:23.594Z,64.89
2022-10-17T21:42:53.826Z,64.91
2022-10-17T21:45:25.862Z,64.96
2022-10-17T21:48:12.110Z,64.83
2022-10-17T21:50:43.328Z,64.88
2022-10-17T21:53:13.531Z,64.69
2022-10-17T21:55:43.795Z,64.77
2022-10-17T21:58:14.046Z,64.47
2022-10-17T22:00:44.284Z,64.51
2022-10-17T22:03:15.203Z,64.32
2022-10-17T22:05:46.418Z,64.14
2022-10-17T22:08:16.853Z,64.02
2022-10-17T22:10:47.148Z,63.79
2022-10-17T22:13:17.371Z,63.83
2022-10-17T22:15:47.598Z,63.78
2022-10-17T22:18:17.890Z,63.83
2022-10-17T22:20:48.096Z,63.93
2022-10-17T22:23:18.361Z,63.92
2022-10-17T22:25:55.385Z,63.95
2022-10-17T22:28:26.739Z,63.93
2022-10-17T22:30:57.091Z,64.09
2022-10-17T22:33:27.381Z,64.20
2022-10-17T22:35:57.607Z,64.54
2022-10-17T22:38:27.887Z,64.72
2022-10-17T22:40:58.288Z,64.73
2022-10-17T22:43:29.676Z,64.82
2022-10-17T22:46:01.915Z,65.23
2022-10-17T22:48:32.392Z,65.26
2022-10-17T22:51:03.316Z,65.21
2022-10-17T22:53:35.060Z,65.06
2022-10-17T22:56:07.739Z,65.31
2022-10-17T22:58:38.886Z,65.71
2022-10-17T23:01:11.362Z,65.84
2022-10-17T23:03:41.761Z,65.86
2022-10-17T23:06:14.855Z,65.90
2022-10-17T23:08:45.370Z,65.88
2022-10-17T23:11:15.640Z,65.93
2022-10-17T23:13:47.076Z,66.14
2022-10-17T23:16:17.328Z,66.45
2022-10-17T23:18:47.787Z,66.53
2022-10-17T23:21:18.153Z,66.71
2022-10-17T23:23:48.408Z,66.56
2022-10-17T23:26:18.601Z,66.49
2022-10-17T23:28:48.955Z,66.66
2022-10-17T23:31:20.819Z,66.92
2022-10-17T23:33:51.612Z,67.25
2022-10-17T23:36:22.582Z,67.48
2022-10-17T23:38:55.104Z,67.65
2022-10-17T23:41:28.613Z,67.62
2022-10-17T23:43:58.861Z,67.65
2022-10-17T23:46:29.076Z,67.60
2022-10-17T23:48:59.403Z,67.73
2022-10-17T23:51:30.277Z,67.82
2022-10-17T23:54:00.531Z,68.16
2022-10-17T23:56:30.823Z,68.46
2022-10-17T23:59:01.128Z,68.65
